Time;durP1;ratioP1;P1;durP2;ratioP2;P2;SDS_P1;SDS_P2;PMS_P1;PMS_P2;Temp;Humidity;BMP_temperature;BMP_pressure;BME280_temperature;BME280_humidity;BME280_pressure;Samples;Min_cycle;Max_cycle;Signal;HPM_P1;HPM_P2
2021/06/27 00:00:44;;;;;;;18.73;14.32;;;18.10;99.90;;;;;;12383703;28;20058;-39
2021/06/27 00:06:47;;;;;;;16.33;14.48;;;18.00;99.90;;;;;;12373248;28;20475;-40
2021/06/27 00:12:49;;;;;;;23.00;15.48;;;17.90;99.90;;;;;;12383878;28;20653;-39
2021/06/27 00:18:52;;;;;;;16.60;14.43;;;17.70;99.90;;;;;;12379262;28;20088;-40
2021/06/27 00:24:53;;;;;;;18.45;15.52;;;17.60;99.90;;;;;;12388392;28;20499;-39
2021/06/27 00:30:57;;;;;;;18.58;14.50;;;17.40;99.90;;;;;;12385933;28;20107;-40
2021/06/27 00:36:59;;;;;;;19.83;15.95;;;17.40;99.90;;;;;;12388906;28;20203;-39
2021/06/27 00:43:01;;;;;;;17.95;14.95;;;17.30;99.90;;;;;;12379439;28;20140;-40
2021/06/27 00:49:03;;;;;;;21.15;15.75;;;17.10;99.90;;;;;;12387470;28;20054;-39
2021/06/27 00:55:06;;;;;;;20.30;15.30;;;17.30;99.90;;;;;;12386009;28;20054;-40
2021/06/27 01:01:09;;;;;;;16.95;14.52;;;17.30;99.90;;;;;;12387890;28;20100;-40
2021/06/27 01:07:11;;;;;;;17.95;15.77;;;17.40;99.90;;;;;;12383518;28;20496;-39
2021/06/27 01:13:14;;;;;;;20.00;15.45;;;17.30;99.90;;;;;;12389858;28;20572;-39
2021/06/27 01:19:19;;;;;;;20.83;15.85;;;17.20;99.90;;;;;;12394473;28;20113;-39
2021/06/27 01:25:34;;;;;;;22.00;16.58;;;17.30;99.90;;;;;;12394185;28;20328;-40
2021/06/27 01:31:36;;;;;;;19.55;15.63;;;17.40;99.90;;;;;;12401853;28;20375;-41
2021/06/27 01:37:42;;;;;;;21.15;14.98;;;17.50;99.90;;;;;;12394419;28;20572;-42
2021/06/27 01:43:45;;;;;;;19.45;14.20;;;17.40;99.90;;;;;;12387507;28;20980;-40
2021/06/27 01:49:46;;;;;;;23.98;13.57;;;17.30;99.90;;;;;;12384107;28;20054;-39
2021/06/27 01:56:04;;;;;;;22.38;14.73;;;17.10;99.90;;;;;;12388397;28;20045;-41
2021/06/27 02:02:06;;;;;;;21.40;14.00;;;16.90;99.90;;;;;;12392162;28;20054;-39
2021/06/27 02:08:09;;;;;;;21.67;14.32;;;16.70;99.90;;;;;;12397755;28;20471;-39
2021/06/27 02:14:10;;;;;;;22.95;13.70;;;16.70;99.90;;;;;;12393910;28;20310;-39
2021/06/27 02:20:13;;;;;;;20.90;14.38;;;16.60;99.90;;;;;;12391909;28;20054;-39
2021/06/27 02:26:16;;;;;;;20.38;14.20;;;16.60;99.90;;;;;;12390875;28;20054;-39
2021/06/27 02:32:17;;;;;;;20.27;13.85;;;16.60;99.90;;;;;;12386152;28;20046;-39
2021/06/27 02:38:19;;;;;;;19.20;15.98;;;16.40;99.90;;;;;;12388564;28;20093;-39
2021/06/27 02:44:22;;;;;;;19.15;15.80;;;16.40;99.90;;;;;;12391740;28;20046;-39
2021/06/27 02:50:25;;;;;;;19.40;15.57;;;16.60;99.90;;;;;;12388697;28;20049;-39
2021/06/27 02:56:30;;;;;;;20.58;15.00;;;16.50;99.90;;;;;;12395635;28;20731;-39
2021/06/27 03:02:32;;;;;;;25.05;14.43;;;16.30;99.90;;;;;;12391844;28;20115;-40
2021/06/27 03:08:35;;;;;;;22.58;16.05;;;16.30;99.90;;;;;;12395606;28;20042;-39
2021/06/27 03:14:37;;;;;;;19.55;15.77;;;16.10;99.90;;;;;;12390049;28;20048;-39
2021/06/27 03:20:39;;;;;;;23.63;14.60;;;16.30;99.90;;;;;;12390457;28;20446;-40
2021/06/27 03:26:41;;;;;;;22.92;14.52;;;16.40;99.90;;;;;;12393922;28;20046;-41
2021/06/27 03:32:44;;;;;;;22.40;14.02;;;16.50;99.90;;;;;;12390542;28;20054;-39
2021/06/27 03:38:51;;;;;;;22.05;14.82;;;16.40;99.90;;;;;;12394656;28;20050;-40
2021/06/27 03:44:53;;;;;;;25.25;15.82;;;16.40;99.90;;;;;;12385653;28;20046;-40
2021/06/27 03:50:55;;;;;;;19.27;13.20;;;16.40;99.90;;;;;;12387029;28;20111;-39
2021/06/27 03:56:57;;;;;;;25.00;14.45;;;16.40;99.90;;;;;;12388201;28;20128;-40
2021/06/27 04:02:59;;;;;;;24.85;13.73;;;16.40;99.90;;;;;;12390980;28;20115;-40
2021/06/27 04:09:01;;;;;;;26.23;14.57;;;16.50;99.90;;;;;;12382396;28;20058;-40
2021/06/27 04:15:04;;;;;;;20.80;14.60;;;16.50;99.90;;;;;;12383993;28;20077;-43
2021/06/27 04:21:07;;;;;;;22.15;16.70;;;16.50;99.90;;;;;;12386250;28;20537;-40
2021/06/27 04:27:09;;;;;;;18.95;16.30;;;16.50;99.90;;;;;;12386420;28;20054;-40
2021/06/27 04:33:11;;;;;;;20.60;16.27;;;16.50;99.90;;;;;;12384679;28;20053;-41
2021/06/27 04:39:15;;;;;;;18.27;15.90;;;16.50;99.90;;;;;;12397245;28;20422;-41
2021/06/27 04:45:17;;;;;;;20.23;15.20;;;16.60;99.90;;;;;;12396686;28;20054;-39
2021/06/27 04:51:22;;;;;;;20.25;15.82;;;16.70;99.90;;;;;;12394621;28;20141;-41
2021/06/27 04:57:26;;;;;;;17.83;15.43;;;16.70;99.90;;;;;;12393642;28;20065;-40
2021/06/27 05:03:27;;;;;;;19.50;15.52;;;16.70;99.90;;;;;;12394133;28;20058;-39
2021/06/27 05:09:29;;;;;;;15.68;13.90;;;16.70;99.90;;;;;;12395082;28;20050;-41
2021/06/27 05:15:31;;;;;;;16.60;13.45;;;16.80;99.90;;;;;;12391426;28;20196;-39
2021/06/27 05:21:33;;;;;;;18.00;14.65;;;16.80;99.90;;;;;;12391185;28;20046;-39
2021/06/27 05:27:35;;;;;;;14.82;13.15;;;16.90;99.90;;;;;;12391865;28;20049;-39
2021/06/27 05:33:37;;;;;;;18.40;12.32;;;17.00;99.90;;;;;;12392076;28;20078;-39
2021/06/27 05:39:39;;;;;;;18.30;13.13;;;17.10;99.90;;;;;;12394538;28;20184;-39
2021/06/27 05:45:41;;;;;;;16.33;12.20;;;17.20;99.90;;;;;;12390352;28;20052;-40
2021/06/27 05:51:43;;;;;;;16.63;12.15;;;17.30;99.90;;;;;;12395861;28;20057;-39
2021/06/27 05:57:44;;;;;;;17.65;12.48;;;17.50;99.90;;;;;;12400201;28;20057;-40
2021/06/27 06:03:46;;;;;;;12.98;11.63;;;17.60;99.90;;;;;;12393581;28;20829;-40
2021/06/27 06:09:48;;;;;;;15.52;11.93;;;17.80;99.90;;;;;;12393091;28;20042;-39
2021/06/27 06:15:50;;;;;;;13.70;11.52;;;17.90;99.90;;;;;;12398393;28;20137;-39
2021/06/27 06:21:52;;;;;;;13.93;10.82;;;18.10;99.90;;;;;;12386603;28;20088;-40
2021/06/27 06:27:54;;;;;;;12.20;10.65;;;18.20;99.90;;;;;;12389910;28;20096;-40
2021/06/27 06:33:56;;;;;;;12.35;10.35;;;18.40;99.90;;;;;;12386104;28;20058;-39
2021/06/27 06:39:58;;;;;;;13.15;9.43;;;18.60;99.90;;;;;;12391077;28;20099;-40
2021/06/27 06:46:02;;;;;;;12.35;9.60;;;18.80;99.90;;;;;;12384630;28;20050;-39
2021/06/27 06:52:04;;;;;;;14.23;8.13;;;18.90;99.90;;;;;;12389715;28;20054;-39
2021/06/27 06:58:06;;;;;;;10.10;8.30;;;19.10;99.90;;;;;;12388418;28;20088;-40
2021/06/27 07:04:07;;;;;;;9.32;7.68;;;19.30;99.90;;;;;;12384210;28;20096;-40
2021/06/27 07:10:10;;;;;;;11.38;8.20;;;19.40;99.90;;;;;;12385910;28;20387;-42
2021/06/27 07:16:12;;;;;;;8.77;7.70;;;19.60;99.90;;;;;;12388681;28;20050;-40
2021/06/27 07:22:14;;;;;;;9.27;7.25;;;19.70;99.90;;;;;;12384535;28;20156;-40
2021/06/27 07:28:16;;;;;;;7.75;6.05;;;19.80;99.90;;;;;;12392001;28;20050;-39
2021/06/27 07:34:18;;;;;;;9.68;8.00;;;19.90;99.90;;;;;;12386952;28;20108;-41
2021/06/27 07:40:20;;;;;;;7.97;7.10;;;20.10;99.90;;;;;;12388666;28;20062;-40
2021/06/27 07:46:22;;;;;;;7.70;6.00;;;20.20;99.90;;;;;;12384685;28;20052;-41
2021/06/27 07:52:24;;;;;;;7.20;6.22;;;20.40;99.90;;;;;;12392668;28;20802;-41
2021/06/27 07:58:26;;;;;;;6.20;4.53;;;20.60;99.90;;;;;;12388919;28;20053;-44
2021/06/27 08:04:28;;;;;;;7.03;4.05;;;21.00;99.90;;;;;;12380517;28;20046;-41
2021/06/27 08:10:30;;;;;;;4.55;3.83;;;21.60;99.90;;;;;;12385376;28;20452;-40
2021/06/27 08:16:32;;;;;;;6.17;3.93;;;21.80;99.90;;;;;;12372049;28;20097;-40
2021/06/27 08:22:34;;;;;;;4.43;3.90;;;21.80;99.90;;;;;;12381986;28;20070;-40
2021/06/27 08:28:37;;;;;;;5.75;3.70;;;21.70;99.90;;;;;;12383808;28;20061;-40
2021/06/27 08:34:39;;;;;;;4.63;3.33;;;21.80;99.90;;;;;;12383461;28;20050;-41
2021/06/27 08:40:41;;;;;;;4.50;3.58;;;21.80;99.90;;;;;;12380028;28;20058;-40
2021/06/27 08:46:44;;;;;;;5.05;3.20;;;21.90;99.90;;;;;;12380122;28;20050;-40
2021/06/27 08:52:46;;;;;;;5.88;3.50;;;22.20;99.90;;;;;;12379313;28;20166;-40
2021/06/27 08:58:48;;;;;;;5.78;3.33;;;22.30;99.90;;;;;;12383691;28;20104;-40
2021/06/27 09:04:50;;;;;;;3.97;3.22;;;22.70;99.90;;;;;;12380659;28;20050;-40
2021/06/27 09:10:54;;;;;;;4.55;3.40;;;22.90;99.90;;;;;;12379203;28;20579;-40
2021/06/27 09:17:06;;;;;;;3.65;2.80;;;22.80;99.90;;;;;;12379549;28;20688;-40
2021/06/27 09:23:10;;;;;;;3.95;2.80;;;22.90;99.90;;;;;;12382250;28;20108;-42
2021/06/27 09:29:25;;;;;;;4.03;2.50;;;23.10;99.90;;;;;;12392991;28;20046;-40
2021/06/27 09:35:46;;;;;;;2.97;2.50;;;23.50;99.90;;;;;;12392130;28;20046;-40
2021/06/27 09:41:57;;;;;;;3.58;2.80;;;23.80;99.90;;;;;;12388723;28;20050;-39
2021/06/27 09:48:05;;;;;;;2.78;2.30;;;23.90;99.90;;;;;;12388813;28;20521;-40
2021/06/27 09:54:16;;;;;;;3.88;2.78;;;24.00;99.90;;;;;;12383003;28;20600;-40
2021/06/27 10:00:28;;;;;;;5.53;2.88;;;23.80;99.90;;;;;;12392841;28;20066;-41
2021/06/27 10:06:33;;;;;;;3.50;2.50;;;24.10;99.90;;;;;;12382384;28;20073;-41
2021/06/27 10:12:36;;;;;;;4.25;3.00;;;24.40;99.90;;;;;;12394009;28;20137;-40
2021/06/27 10:18:38;;;;;;;8.60;3.10;;;24.30;99.90;;;;;;12383147;28;20054;-42
2021/06/27 10:24:41;;;;;;;4.10;2.77;;;24.60;99.90;;;;;;12387247;28;20076;-41
2021/06/27 10:30:43;;;;;;;4.93;3.30;;;24.80;99.90;;;;;;12381244;28;20045;-41
2021/06/27 10:36:52;;;;;;;4.53;2.65;;;24.60;99.90;;;;;;12381046;28;20073;-40
2021/06/27 10:43:00;;;;;;;5.30;2.92;;;24.50;99.90;;;;;;12389511;28;20050;-41
2021/06/27 10:49:03;;;;;;;4.10;2.90;;;24.70;99.90;;;;;;12379939;28;20488;-40
2021/06/27 10:55:23;;;;;;;;;;;24.90;99.90;;;;;;12391097;28;20053;-40
2021/06/27 11:01:25;;;;;;;5.68;3.25;;;24.80;99.90;;;;;;12383806;28;19971;-40
2021/06/27 11:07:35;;;;;;;3.70;2.97;;;24.60;99.90;;;;;;12390798;28;20054;-41
2021/06/27 11:13:39;;;;;;;3.45;2.70;;;24.60;99.90;;;;;;12378857;28;20571;-41
2021/06/27 11:19:42;;;;;;;3.15;2.80;;;24.70;99.90;;;;;;12390371;28;20050;-40
2021/06/27 11:25:46;;;;;;;13.80;9.63;;;24.70;99.90;;;;;;12381237;28;20058;-40
2021/06/27 11:31:48;;;;;;;3.80;3.20;;;24.20;99.90;;;;;;12378934;28;20054;-40
2021/06/27 11:37:50;;;;;;;4.93;3.27;;;24.70;99.90;;;;;;12384193;28;20168;-40
2021/06/27 11:43:55;;;;;;;4.93;2.80;;;25.00;99.90;;;;;;12385527;28;20046;-40
2021/06/27 11:49:57;;;;;;;4.75;2.78;;;25.00;99.90;;;;;;12385961;28;20782;-40
2021/06/27 11:56:07;;;;;;;4.93;2.42;;;25.20;99.90;;;;;;12383655;28;20473;-40
2021/06/27 12:02:09;;;;;;;5.60;2.67;;;25.20;99.90;;;;;;12379428;28;20057;-40
2021/06/27 12:08:12;;;;;;;3.07;2.40;;;25.10;99.90;;;;;;12381164;28;20138;-41
2021/06/27 12:14:14;;;;;;;;;;;25.30;99.90;;;;;;12374524;28;20042;-40
2021/06/27 12:20:17;;;;;;;3.60;2.90;;;25.50;99.90;;;;;;12382976;28;19971;-39
2021/06/27 12:26:21;;;;;;;3.63;2.65;;;25.70;99.90;;;;;;12381105;28;20112;-40
2021/06/27 12:32:23;;;;;;;3.90;2.78;;;25.40;99.90;;;;;;12382007;28;20049;-40
2021/06/27 12:38:25;;;;;;;3.85;2.75;;;25.60;99.90;;;;;;12380814;28;20045;-40
2021/06/27 12:44:27;;;;;;;;;;;26.10;99.90;;;;;;12380784;28;20540;-40
2021/06/27 12:50:37;;;;;;;3.55;2.50;;;26.30;99.90;;;;;;12381340;28;19929;-39
2021/06/27 12:57:05;;;;;;;2.75;2.30;;;26.10;99.90;;;;;;12384262;28;20668;-40
2021/06/27 13:03:18;;;;;;;2.72;2.20;;;26.20;99.90;;;;;;12388716;28;20054;-41
2021/06/27 13:09:19;;;;;;;3.25;2.50;;;27.30;99.90;;;;;;12389170;28;20050;-40
2021/06/27 13:15:35;;;;;;;2.50;2.00;;;27.00;99.90;;;;;;12394034;28;20054;-40
2021/06/27 13:21:38;;;;;;;3.33;2.40;;;27.30;99.90;;;;;;12391291;28;20088;-40
2021/06/27 13:27:40;;;;;;;3.60;2.47;;;27.10;99.90;;;;;;12389828;28;20108;-41
2021/06/27 13:33:47;;;;;;;4.00;2.40;;;26.60;99.90;;;;;;12389514;28;20046;-40
2021/06/27 13:39:49;;;;;;;3.03;2.15;;;26.30;99.90;;;;;;12392765;28;21803;-41
2021/06/27 13:45:51;;;;;;;2.28;1.77;;;26.60;99.90;;;;;;12387160;28;20100;-40
2021/06/27 13:51:53;;;;;;;3.33;2.40;;;26.50;99.90;;;;;;12385012;28;20062;-42
2021/06/27 13:57:56;;;;;;;2.92;1.90;;;26.30;99.90;;;;;;12389600;28;20053;-40
2021/06/27 14:04:04;;;;;;;;;;;26.50;99.90;;;;;;12393584;28;20049;-41
2021/06/27 14:10:08;;;;;;;1.88;1.50;;;26.60;99.90;;;;;;12381072;28;19926;-40
2021/06/27 14:16:11;;;;;;;1.95;1.65;;;26.80;99.90;;;;;;12385117;28;20041;-40
2021/06/27 14:22:13;;;;;;;3.10;1.77;;;27.10;99.90;;;;;;12391621;28;20062;-41
2021/06/27 14:28:16;;;;;;;2.93;1.80;;;27.10;99.90;;;;;;12391541;28;20057;-41
2021/06/27 14:34:18;;;;;;;2.40;1.80;;;26.90;99.90;;;;;;12384925;28;20054;-41
2021/06/27 14:40:20;;;;;;;2.53;1.60;;;26.70;99.90;;;;;;12387128;28;20049;-40
2021/06/27 14:46:23;;;;;;;3.10;1.77;;;26.70;99.90;;;;;;12389331;28;20322;-40
2021/06/27 14:52:30;;;;;;;3.25;1.77;;;27.00;99.90;;;;;;12391058;28;20069;-40
2021/06/27 14:58:32;;;;;;;2.57;1.60;;;27.00;99.90;;;;;;12387220;28;20098;-42
2021/06/27 15:04:34;;;;;;;2.23;1.50;;;26.90;99.90;;;;;;12389073;28;20072;-41
2021/06/27 15:10:36;;;;;;;2.95;1.92;;;26.50;99.90;;;;;;12387819;28;20859;-41
2021/06/27 15:16:38;;;;;;;4.07;1.90;;;26.50;99.90;;;;;;12381579;28;20456;-42
2021/06/27 15:22:40;;;;;;;2.37;1.90;;;26.30;99.90;;;;;;12387092;28;20054;-41
2021/06/27 15:28:41;;;;;;;2.23;2.00;;;26.70;99.90;;;;;;12383896;28;20096;-40
2021/06/27 15:34:43;;;;;;;3.77;2.10;;;26.50;99.90;;;;;;12379259;28;20145;-40
2021/06/27 15:40:47;;;;;;;4.03;2.38;;;26.60;99.90;;;;;;12382557;28;20072;-41
2021/06/27 15:46:48;;;;;;;4.35;2.20;;;26.60;99.90;;;;;;12388347;28;20473;-40
2021/06/27 15:52:55;;;;;;;2.70;2.00;;;26.90;99.90;;;;;;12386554;28;20058;-45
2021/06/27 15:58:57;;;;;;;2.80;2.13;;;26.80;99.90;;;;;;12381742;28;20046;-40
2021/06/27 16:04:59;;;;;;;3.28;2.60;;;27.00;99.90;;;;;;12385585;28;20115;-40
2021/06/27 16:11:04;;;;;;;2.70;2.22;;;26.90;99.90;;;;;;12387671;28;20049;-41
2021/06/27 16:17:06;;;;;;;2.22;1.70;;;27.20;99.90;;;;;;12381890;28;20046;-41
2021/06/27 16:23:10;;;;;;;2.53;1.88;;;27.00;99.90;;;;;;12384925;28;20054;-40
2021/06/27 16:29:12;;;;;;;2.47;2.10;;;26.60;99.90;;;;;;12386541;28;20412;-41
2021/06/27 16:35:14;;;;;;;5.53;2.58;;;26.10;99.90;;;;;;12383899;28;20046;-41
2021/06/27 16:41:16;;;;;;;3.20;2.40;;;26.20;99.90;;;;;;12379332;28;20060;-41
2021/06/27 16:47:18;;;;;;;2.70;2.10;;;26.40;99.90;;;;;;12384924;28;20164;-42
2021/06/27 16:53:20;;;;;;;3.10;2.45;;;26.60;99.90;;;;;;12380174;28;20096;-40
2021/06/27 16:59:21;;;;;;;5.50;2.60;;;26.60;99.90;;;;;;12380799;28;20277;-43
2021/06/27 17:05:23;;;;;;;2.80;2.50;;;26.20;99.90;;;;;;12377259;28;20050;-43
2021/06/27 17:11:28;;;;;;;3.60;2.83;;;25.90;99.90;;;;;;12383827;28;20133;-41
2021/06/27 17:17:30;;;;;;;2.60;2.40;;;25.70;99.90;;;;;;12379591;28;20158;-42
2021/06/27 17:23:32;;;;;;;5.72;2.85;;;25.50;99.90;;;;;;12380316;28;20539;-40
2021/06/27 17:29:35;;;;;;;3.63;2.80;;;25.40;99.90;;;;;;12385904;28;20057;-40
2021/06/27 17:35:37;;;;;;;3.40;2.90;;;25.30;99.90;;;;;;12379479;28;20478;-40
2021/06/27 17:41:40;;;;;;;3.08;2.65;;;25.20;99.90;;;;;;12377630;28;20082;-42
2021/06/27 17:47:42;;;;;;;6.32;2.85;;;25.20;99.90;;;;;;12385593;28;20600;-41
2021/06/27 17:53:45;;;;;;;4.30;2.87;;;25.00;99.90;;;;;;12386434;28;20081;-40
2021/06/27 17:59:47;;;;;;;3.72;2.78;;;24.80;99.90;;;;;;12394090;28;20561;-40
2021/06/27 18:05:49;;;;;;;5.25;2.97;;;24.70;99.90;;;;;;12391751;28;20052;-41
2021/06/27 18:11:51;;;;;;;3.50;3.17;;;24.60;99.90;;;;;;12385128;28;23588;-41
2021/06/27 18:17:52;;;;;;;4.03;3.10;;;24.50;99.90;;;;;;12393179;28;20156;-40
2021/06/27 18:23:54;;;;;;;3.83;3.10;;;24.30;99.90;;;;;;12385028;28;20060;-41
2021/06/27 18:29:56;;;;;;;3.60;2.85;;;24.20;99.90;;;;;;12389369;28;20050;-41
2021/06/27 18:35:58;;;;;;;3.97;3.05;;;24.10;99.90;;;;;;12383040;28;20570;-40
2021/06/27 18:42:00;;;;;;;4.97;3.10;;;24.00;99.90;;;;;;12385918;28;20133;-40
2021/06/27 18:48:03;;;;;;;3.90;2.85;;;23.80;99.90;;;;;;12389721;28;20136;-43
2021/06/27 18:54:07;;;;;;;4.15;3.40;;;23.70;99.90;;;;;;12393576;28;20315;-42
2021/06/27 19:00:12;;;;;;;4.20;3.55;;;23.60;99.90;;;;;;12394710;28;20189;-40
2021/06/27 19:06:15;;;;;;;4.38;2.92;;;23.50;99.90;;;;;;12399519;28;20718;-43
2021/06/27 19:12:20;;;;;;;3.85;3.20;;;23.40;99.90;;;;;;12397372;28;20050;-40
2021/06/27 19:18:25;;;;;;;4.05;2.85;;;23.30;99.90;;;;;;12402045;28;20120;-40
2021/06/27 19:24:27;;;;;;;4.20;3.03;;;23.20;99.90;;;;;;12405523;28;21040;-40
2021/06/27 19:30:29;;;;;;;5.40;3.17;;;23.20;99.90;;;;;;12400893;28;20050;-40
2021/06/27 19:36:31;;;;;;;4.63;2.83;;;23.10;99.90;;;;;;12396767;28;20148;-40
2021/06/27 19:42:33;;;;;;;4.22;3.00;;;23.10;99.90;;;;;;12400499;28;20046;-44
2021/06/27 19:48:36;;;;;;;4.13;2.67;;;22.90;99.90;;;;;;12401008;28;20819;-40
2021/06/27 19:54:39;;;;;;;4.73;3.23;;;22.90;99.90;;;;;;12403532;28;20153;-40
2021/06/27 20:00:41;;;;;;;3.55;3.03;;;22.70;99.90;;;;;;12398553;28;20141;-40
2021/06/27 20:06:43;;;;;;;3.58;3.20;;;22.70;99.90;;;;;;12399797;28;20082;-40
2021/06/27 20:12:45;;;;;;;4.72;3.53;;;22.50;99.90;;;;;;12399125;28;20052;-43
2021/06/27 20:18:48;;;;;;;4.38;3.30;;;22.40;99.90;;;;;;12396268;28;20569;-44
2021/06/27 20:24:53;;;;;;;4.20;3.30;;;22.30;99.90;;;;;;12396505;28;20430;-40
2021/06/27 20:30:55;;;;;;;3.75;3.20;;;22.30;99.90;;;;;;12398522;28;20498;-40
2021/06/27 20:37:01;;;;;;;5.05;3.40;;;22.20;99.90;;;;;;12399584;28;20145;-42
2021/06/27 20:43:03;;;;;;;5.55;3.17;;;22.10;99.90;;;;;;12398550;28;20162;-40
2021/06/27 20:49:07;;;;;;;4.85;3.53;;;22.00;99.90;;;;;;12398389;28;20136;-42
2021/06/27 20:55:10;;;;;;;4.57;3.53;;;21.90;99.90;;;;;;12395393;28;20081;-41
2021/06/27 21:01:12;;;;;;;4.13;3.50;;;21.90;99.90;;;;;;12394816;28;20046;-40
2021/06/27 21:07:14;;;;;;;3.67;2.92;;;21.80;99.90;;;;;;12397100;28;20050;-44
2021/06/27 21:13:16;;;;;;;3.83;3.20;;;21.70;99.90;;;;;;12398234;28;20061;-40
2021/06/27 21:19:19;;;;;;;3.88;3.00;;;21.60;99.90;;;;;;12396423;28;20057;-41
2021/06/27 21:25:21;;;;;;;3.60;2.80;;;21.60;99.90;;;;;;12403513;28;20433;-40
2021/06/27 21:31:23;;;;;;;3.40;3.10;;;21.60;99.90;;;;;;12405315;28;20671;-39
2021/06/27 21:37:28;;;;;;;3.95;2.85;;;21.50;99.90;;;;;;12405316;28;20061;-41
2021/06/27 21:43:30;;;;;;;3.33;2.65;;;21.50;99.90;;;;;;12406971;28;20561;-40
2021/06/27 21:49:32;;;;;;;5.60;3.08;;;21.50;99.90;;;;;;12401748;28;20092;-40
2021/06/27 21:55:34;;;;;;;3.63;2.90;;;21.50;99.90;;;;;;12401255;28;20137;-40
2021/06/27 22:01:36;;;;;;;4.87;2.70;;;21.50;99.90;;;;;;12406213;28;20139;-40
2021/06/27 22:07:40;;;;;;;5.15;2.60;;;21.40;99.90;;;;;;12403830;28;20077;-40
2021/06/27 22:13:41;;;;;;;4.05;2.53;;;21.30;99.90;;;;;;12404090;28;20142;-39
2021/06/27 22:19:45;;;;;;;4.00;2.63;;;21.30;99.90;;;;;;12404265;28;20145;-40
2021/06/27 22:25:47;;;;;;;4.00;3.05;;;21.30;99.90;;;;;;12399114;28;20073;-40
2021/06/27 22:31:49;;;;;;;3.83;3.00;;;21.10;99.90;;;;;;12402979;28;20640;-39
2021/06/27 22:37:52;;;;;;;4.05;2.83;;;21.10;99.90;;;;;;12401676;28;20050;-41
2021/06/27 22:43:54;;;;;;;3.80;3.05;;;21.10;99.90;;;;;;12407697;28;20153;-40
2021/06/27 22:49:56;;;;;;;3.78;2.83;;;21.00;99.90;;;;;;12400727;28;20100;-40
2021/06/27 22:56:12;;;;;;;4.20;3.13;;;20.90;99.90;;;;;;12401738;28;20169;-41
2021/06/27 23:02:15;;;;;;;5.20;2.92;;;20.80;99.90;;;;;;12399922;28;20141;-39
2021/06/27 23:08:17;;;;;;;3.80;2.90;;;20.80;99.90;;;;;;12397004;28;20476;-41
2021/06/27 23:14:20;;;;;;;5.95;2.90;;;20.70;99.90;;;;;;12399523;28;20056;-41
2021/06/27 23:20:22;;;;;;;3.80;2.90;;;20.60;99.90;;;;;;12400819;28;20061;-40
2021/06/27 23:26:23;;;;;;;5.13;2.95;;;20.80;99.90;;;;;;12403121;28;20149;-40
2021/06/27 23:32:27;;;;;;;4.85;2.90;;;20.60;99.90;;;;;;12397627;28;20166;-40
2021/06/27 23:38:30;;;;;;;4.60;3.10;;;20.40;99.90;;;;;;12404158;28;20129;-40
2021/06/27 23:44:32;;;;;;;4.78;3.08;;;20.50;99.90;;;;;;12400270;28;20100;-39
2021/06/27 23:50:34;;;;;;;3.95;3.00;;;20.50;99.90;;;;;;12402087;28;20050;-40
2021/06/27 23:56:36;;;;;;;5.07;3.20;;;20.50;99.90;;;;;;12391246;28;20085;-40
